CDT,Max TemperatureF,Mean TemperatureF,Min TemperatureF,Max Dew PointF,MeanDew PointF,Min DewpointF,Max Humidity, Mean Humidity, Min Humidity, Max Sea Level PressureIn, Mean Sea Level PressureIn, Min Sea Level PressureIn, Max VisibilityMiles, Mean VisibilityMiles, Min VisibilityMiles, Max Wind SpeedMPH, Mean Wind SpeedMPH, Max Gust SpeedMPH,PrecipitationIn, CloudCover, Events, WindDirDegrees
2012-10-1,69,56,43,46,41,34,88,60,28,29.92,29.87,29.82,10,10,5,8,4,,0.00,0,,50
2012-10-2,74,58,43,47,41,37,90,58,27,29.91,29.87,29.84,10,9,7,9,3,,0.00,0,,15
2012-10-3,79,60,42,53,43,39,90,59,25,30.01,29.94,29.90,10,10,7,9,3,,0.00,0,,130
2012-10-4,61,51,41,53,47,39,96,84,55,30.22,30.11,30.00,10,10,4,14,7,24,0.06,3,Rain,237
2012-10-5,45,39,33,40,33,29,90,74,52,30.25,30.22,30.18,10,10,5,17,7,28,0.01,5,Rain,290
2012-10-6,44,36,28,30,27,24,84,65,50,30.27,30.24,30.19,10,10,10,14,7,21,0.00,4,,291
2012-10-7,52,41,30,30,24,18,85,56,27,30.27,30.20,30.13,10,10,10,10,5,17,0.00,2,,260
2012-10-8,61,46,32,34,30,25,85,56,30,30.13,30.04,29.95,10,10,10,22,10,30,0.00,0,,191
2012-10-9,66,53,41,43,38,34,91,66,37,30.04,29.93,29.85,10,10,10,22,12,30,0.00,2,Rain,238
2012-10-10,55,44,34,35,27,21,78,55,26,30.23,30.15,30.05,10,10,10,18,9,25,0.00,0,,267
2012-10-11,72,54,36,38,33,28,78,52,26,30.29,30.13,30.05,10,10,10,17,10,25,0.00,1,,213
2012-10-12,60,47,34,46,29,20,90,49,27,30.44,30.32,30.16,10,10,7,14,9,20,0.02,2,Rain,77
2012-10-13,68,59,50,64,56,45,98,90,80,30.13,29.90,29.67,10,7,1,38,12,47,0.07,7,Rain,174
2012-10-14,61,56,48,61,51,45,100,86,72,29.91,29.75,29.53,10,9,4,23,14,36,0.06,7,Rain,264
2012-10-15,65,53,41,45,40,36,90,67,35,30.00,29.95,29.90,10,10,7,7,5,,0.01,0,,263
2012-10-16,79,62,46,50,46,41,82,58,35,29.90,29.64,29.47,10,10,10,24,11,30,0.00,0,,176
2012-10-17,63,55,47,57,48,38,95,72,52,29.51,29.45,29.37,10,10,4,21,11,28,0.01,3,Rain,222
2012-10-18,49,46,43,43,37,31,96,74,50,29.48,29.44,29.41,10,9,5,23,13,32,0.00,7,Rain,234
2012-10-19,52,48,43,45,43,40,96,86,64,29.75,29.59,29.41,10,9,2,16,11,25,0.00,8,Rain,277
2012-10-20,58,50,42,44,42,40,94,81,56,29.90,29.84,29.75,10,10,4,10,6,,0.00,5,,228
2012-10-21,74,58,41,56,49,39,95,75,48,29.92,29.88,29.85,10,10,7,13,7,16,0.01,0,,133
2012-10-22,69,66,62,66,63,56,97,89,80,29.91,29.85,29.82,10,8,2,16,7,22,0.00,6,Rain,134
2012-10-23,73,68,64,64,62,59,92,80,63,29.88,29.83,29.78,10,10,7,22,9,28,0.00,6,Rain,179
2012-10-24,81,72,64,64,62,59,90,73,56,29.87,29.82,29.74,10,10,10,21,11,28,0.00,2,,177
2012-10-25,71,54,38,62,48,30,93,78,69,30.23,29.86,29.66,10,9,2,25,17,31,0.00,6,Rain,255
2012-10-26,47,39,31,30,27,25,83,64,44,30.40,30.35,30.24,10,10,10,21,11,28,0.00,1,,323
2012-10-27,45,36,27,28,25,23,87,68,45,30.40,30.34,30.28,10,10,10,12,6,16,0.00,0,,349
2012-10-28,49,37,25,29,26,22,87,67,41,30.35,30.31,30.27,10,8,1,9,6,,0.00,1,,7
2012-10-29,51,38,25,32,26,21,91,65,31,30.37,30.29,30.18,10,6,0,8,4,,0.00,2,Snow,26
2012-10-30,54,43,32,27,24,19,73,51,26,30.18,30.03,29.93,10,10,1,22,10,28,0.00,0,,330
2012-10-31,52,40,28,27,22,14,80,54,23,30.00,29.97,29.94,10,10,7,14,9,22,0.00,0,,302